This is the latest recevied weather packets stored in our database for station/object BMCB-9. If no packets are shown the sender has not sent any weather packets the latest 10 day(s).
| Time | Temp. | Humidity | Pressure | Rain* | Wind** | Luminosity | Snow |
|---|---|---|---|---|---|---|---|
| 1777546857 | 17.78° C | 28% | 1024.3 hPa | 0 mm | - | 440 W/m² | - |
| 1777546255 | 17.78° C | 30% | 1024.4 hPa | 0 mm | - | 162 W/m² | - |
| 1777544456 | 16.67° C | 29% | 1024.5 hPa | 0 mm | - | 40 W/m² | - |
| 1777543855 | 16.67° C | 30% | 1024.6 hPa | 0 mm | - | 70 W/m² | - |
| 1777542058 | 15.56° C | 33% | 1024.7 hPa | 0 mm | - | 66 W/m² | - |
| 1777536057 | 11.67° C | 44% | 1025.6 hPa | 0 mm | - | 156 W/m² | - |
| 1777533657 | 10° C | 48% | 1025.7 hPa | 0 mm | - | 28 W/m² | - |
| 1777530656 | 7.22° C | 65% | 1025.6 hPa | 0 mm | - | 20 W/m² | - |
| 1777521055 | 4.44° C | 75% | 1025.1 hPa | 0 mm | - | 0 W/m² | - |
| 1777518055 | 5.56° C | 71% | 1025.1 hPa | 0 mm | - | 0 W/m² | - |
| 1777512055 | 6.67° C | 68% | 1024.9 hPa | 0 mm | - | 0 W/m² | - |
| 1777509653 | 7.22° C | 66% | 1024.8 hPa | 0 mm | - | 0 W/m² | - |
| 1777506058 | 8.33° C | 59% | 1024.8 hPa | 0 mm | - | 0 W/m² | - |
| 1777505457 | 8.89° C | 58% | 1024.8 hPa | 0 mm | - | 0 W/m² | - |
| 1777504858 | 8.89° C | 58% | 1024.8 hPa | 0 mm | - | 0 W/m² | - |
| 1777499457 | 10.56° C | 53% | 1024.2 hPa | 0 mm | - | 0 W/m² | - |
| 1777496460 | 10.56° C | 56% | 1023.9 hPa | 0 mm | - | 0 W/m² | - |
| 1777489858 | 16.67° C | 30% | 1022.5 hPa | 0 mm | - | 0 W/m² | - |
| 1777488058 | 17.78° C | 28% | 1022 hPa | 0 mm | - | 4 W/m² | - |
| 1777487458 | 17.78° C | 27% | 1021.9 hPa | 0 mm | - | 6 W/m² | - |
| 1777485052 | 18.33° C | 27% | 1021.4 hPa | 0 mm | - | 20 W/m² | - |
| 1777480256 | 20° C | 26% | 1021.3 hPa | 0 mm | - | 258 W/m² | - |
| 1777479655 | 20° C | 26% | 1021.3 hPa | 0 mm | - | 292 W/m² | - |
| 1777478457 | 20° C | 26% | 1021.3 hPa | 0 mm | - | 350 W/m² | - |
| 1777476654 | 20.56° C | 26% | 1021.2 hPa | 0 mm | - | 214 W/m² | - |
* Rain latest hour (hover to see other rain measurements)
** Current wind speed in m/s (hover to see current wind gust speed)